createdAt,value
2022-08-25T00:02:03.114Z,102401.56
2022-08-25T00:04:33.745Z,102421.69
2022-08-25T00:07:04.323Z,102416.59
2022-08-25T00:09:35.206Z,102423.53
2022-08-25T00:12:04.983Z,102425.41
2022-08-25T00:14:37.180Z,102423.53
2022-08-25T00:17:06.217Z,102427.06
2022-08-25T00:19:37.146Z,102431.59
2022-08-25T00:22:06.927Z,102425.59
2022-08-25T00:24:34.349Z,102427.34
2022-08-25T00:27:01.829Z,102419.41
2022-08-25T00:29:33.483Z,102416.91
2022-08-25T00:32:01.127Z,102429.19
2022-08-25T00:34:35.802Z,102406.34
2022-08-25T00:37:07.340Z,102408.78
2022-08-25T00:39:34.880Z,102415.94
2022-08-25T00:42:03.533Z,102420.41
2022-08-25T00:44:34.087Z,102402.94
2022-08-25T00:47:03.379Z,102408.16
2022-08-25T00:49:43.374Z,102414.34
2022-08-25T00:52:20.481Z,102394.31
2022-08-25T00:55:08.154Z,102412.66
2022-08-25T00:57:45.779Z,102413.72
2022-08-25T01:00:25.625Z,102406.63
2022-08-25T01:02:53.469Z,102407.56
2022-08-25T01:05:21.380Z,102405.06
2022-08-25T01:07:50.330Z,102405.13
2022-08-25T01:10:22.237Z,102393.88
2022-08-25T01:12:50.593Z,102416.53
2022-08-25T01:15:18.353Z,102399.84
2022-08-25T01:17:50.086Z,102407.66
2022-08-25T01:20:29.274Z,102415.66
2022-08-25T01:22:57.849Z,102406.91
2022-08-25T01:25:49.476Z,102398.19
2022-08-25T01:28:17.885Z,102406.91
2022-08-25T01:30:45.005Z,102408.66
2022-08-25T01:33:13.124Z,102402.44
2022-08-25T01:35:41.206Z,102406.88
2022-08-25T01:38:09.089Z,102397.06
2022-08-25T01:40:39.851Z,102396.19
2022-08-25T01:43:14.877Z,102401.53
2022-08-25T01:45:46.953Z,102403.31
2022-08-25T01:48:16.347Z,102395.56
2022-08-25T01:50:44.207Z,102405.13
2022-08-25T01:53:28.037Z,102385.88
2022-08-25T01:56:01.887Z,102399.88
2022-08-25T01:58:34.757Z,102405.13
2022-08-25T02:01:06.934Z,102394.72
2022-08-25T02:03:38.425Z,102413.16
2022-08-25T02:06:12.951Z,102405.31
2022-08-25T02:08:41.455Z,102400.09
2022-08-25T02:11:13.658Z,102398.22
2022-08-25T02:13:42.394Z,102408.69
2022-08-25T02:16:18.592Z,102406.97
2022-08-25T02:18:46.301Z,102398.38
2022-08-25T02:21:14.420Z,102365.06
2022-08-25T02:23:42.753Z,102385.88
2022-08-25T02:26:10.477Z,102397.00
2022-08-25T02:28:37.834Z,102392.63
2022-08-25T02:31:06.267Z,102391.63
2022-08-25T02:33:33.474Z,102405.50
2022-08-25T02:36:02.740Z,102404.50
2022-08-25T02:38:30.409Z,102389.50
2022-08-25T02:40:59.141Z,102395.59
2022-08-25T02:43:28.442Z,102401.75
2022-08-25T02:45:56.469Z,102372.81
2022-08-25T02:48:23.679Z,102385.91
2022-08-25T02:50:52.931Z,102391.75
2022-08-25T02:53:21.386Z,102389.97
2022-08-25T02:55:48.478Z,102375.88
2022-08-25T03:00:43.081Z,102383.78
2022-08-25T03:03:10.239Z,102372.22
2022-08-25T03:05:37.558Z,102388.06
2022-08-25T03:08:06.902Z,102381.09
2022-08-25T03:10:35.418Z,102375.63
2022-08-25T03:13:02.507Z,102382.91
2022-08-25T03:15:30.503Z,102377.75
2022-08-25T03:17:59.814Z,102377.63
2022-08-25T03:20:27.921Z,102385.63
2022-08-25T03:22:55.115Z,102376.78
2022-08-25T03:25:40.555Z,102363.78
2022-08-25T03:28:08.910Z,102362.78
2022-08-25T03:30:36.012Z,102360.31
2022-08-25T03:33:03.874Z,102363.03
2022-08-25T03:35:31.071Z,102367.47
2022-08-25T03:37:59.769Z,102358.63
2022-08-25T03:40:27.278Z,102364.03
2022-08-25T03:42:56.396Z,102355.31
2022-08-25T03:45:25.449Z,102353.56
2022-08-25T03:47:53.513Z,102352.78
2022-08-25T03:50:23.313Z,102367.63
2022-08-25T03:52:57.213Z,102364.16
2022-08-25T03:55:26.252Z,102355.47
2022-08-25T03:57:55.319Z,102361.47
2022-08-25T04:00:23.687Z,102337.91
2022-08-25T04:02:50.929Z,102361.34
2022-08-25T04:05:18.070Z,102350.78
2022-08-25T04:07:46.320Z,102344.75
2022-08-25T04:10:13.566Z,102358.91
2022-08-25T04:12:40.705Z,102361.66
2022-08-25T04:15:08.980Z,102352.03
2022-08-25T04:17:40.987Z,102349.44
2022-08-25T04:20:10.748Z,102345.09
2022-08-25T04:22:41.526Z,102343.44
2022-08-25T04:25:13.051Z,102352.25
2022-08-25T04:27:41.203Z,102351.31
2022-08-25T04:30:09.148Z,102355.50
2022-08-25T04:32:37.542Z,102338.88
2022-08-25T04:35:05.495Z,102351.94
2022-08-25T04:37:33.418Z,102335.28
2022-08-25T04:40:00.679Z,102354.34
2022-08-25T04:42:27.848Z,102349.22
2022-08-25T04:45:02.036Z,102335.06
2022-08-25T04:47:29.211Z,102339.63
2022-08-25T04:49:56.289Z,102349.97
2022-08-25T04:52:23.302Z,102358.63
2022-08-25T04:54:50.461Z,102354.16
2022-08-25T04:57:17.481Z,102353.09
2022-08-25T04:59:44.527Z,102352.22
2022-08-25T05:02:11.571Z,102354.78
2022-08-25T05:04:38.858Z,102352.94
2022-08-25T05:07:06.136Z,102353.56
2022-08-25T05:09:33.526Z,102347.38
2022-08-25T05:12:02.895Z,102355.03
2022-08-25T05:14:31.314Z,102361.09
2022-08-25T05:16:59.564Z,102354.88
2022-08-25T05:19:27.221Z,102356.63
2022-08-25T05:21:54.391Z,102356.66
2022-08-25T05:24:22.212Z,102365.25
2022-08-25T05:26:49.896Z,102366.13
2022-08-25T05:29:17.453Z,102358.28
2022-08-25T05:31:50.131Z,102375.66
2022-08-25T05:34:19.628Z,102351.88
2022-08-25T05:36:48.519Z,102370.72
2022-08-25T05:39:15.673Z,102367.94
2022-08-25T05:41:42.933Z,102228.69
2022-08-25T05:44:10.167Z,102366.75
2022-08-25T05:46:37.351Z,102375.59
2022-08-25T05:49:04.486Z,102373.84
2022-08-25T05:51:31.538Z,102365.03
2022-08-25T05:53:58.583Z,102366.06
2022-08-25T05:56:25.598Z,102360.72
2022-08-25T05:58:52.590Z,102351.94
2022-08-25T06:01:47.691Z,102370.97
2022-08-25T06:04:18.045Z,102370.88
2022-08-25T06:06:45.181Z,102363.63
2022-08-25T06:09:12.537Z,102350.50
2022-08-25T06:11:41.529Z,102358.16
2022-08-25T06:14:10.735Z,102352.06
2022-08-25T06:16:39.360Z,102358.06
2022-08-25T06:19:09.098Z,102361.41
2022-08-25T06:21:39.074Z,102361.06
2022-08-25T06:24:09.975Z,102357.22
2022-08-25T06:26:39.144Z,102352.69
2022-08-25T06:29:06.187Z,102352.53
2022-08-25T06:31:33.242Z,102348.28
2022-08-25T06:34:00.282Z,102357.88
2022-08-25T06:36:27.366Z,102338.47
2022-08-25T06:38:54.539Z,102348.13
2022-08-25T06:41:21.578Z,102363.78
2022-08-25T06:43:52.901Z,102348.72
2022-08-25T06:46:35.909Z,102359.03
2022-08-25T06:49:06.701Z,102348.28
2022-08-25T06:51:36.061Z,102356.03
2022-08-25T06:54:06.339Z,102356.88
2022-08-25T06:56:34.434Z,102350.84
2022-08-25T06:59:03.940Z,102354.34
2022-08-25T07:01:32.129Z,102357.88
2022-08-25T07:04:04.276Z,102348.06
2022-08-25T07:06:35.475Z,102346.16
2022-08-25T07:09:06.745Z,102353.03
2022-08-25T07:11:34.903Z,102338.09
2022-08-25T07:14:07.350Z,102354.31
2022-08-25T07:16:35.929Z,102348.09
2022-08-25T07:19:05.749Z,102351.56
2022-08-25T07:21:39.450Z,102346.88
2022-08-25T07:24:11.550Z,102351.00
2022-08-25T07:26:42.231Z,102355.22
2022-08-25T07:32:18.551Z,102345.00
2022-08-25T07:35:05.077Z,102336.06
2022-08-25T07:37:48.173Z,102345.66
2022-08-25T07:40:26.204Z,102348.75
2022-08-25T07:42:59.720Z,102337.31
2022-08-25T07:45:31.788Z,102337.69
2022-08-25T07:48:06.343Z,102323.56
2022-08-25T07:50:35.138Z,102346.38
2022-08-25T07:53:02.449Z,102343.22
2022-08-25T07:55:30.532Z,102335.63
2022-08-25T07:57:59.828Z,102336.19
2022-08-25T08:00:30.097Z,102329.34
2022-08-25T08:02:58.143Z,102343.59
2022-08-25T08:05:27.449Z,102338.78
2022-08-25T08:07:56.404Z,102349.72
2022-08-25T08:13:17.730Z,102338.81
2022-08-25T08:15:47.036Z,102342.38
2022-08-25T08:18:14.262Z,102328.91
2022-08-25T08:20:48.132Z,102334.06
2022-08-25T08:23:17.190Z,102329.56
2022-08-25T08:25:44.382Z,102314.13
2022-08-25T08:28:11.694Z,102309.31
2022-08-25T08:30:38.738Z,102307.34
2022-08-25T08:33:10.150Z,102316.72
2022-08-25T08:35:41.274Z,102313.56
2022-08-25T08:38:14.428Z,102301.56
2022-08-25T08:41:23.252Z,102304.22
2022-08-25T08:44:06.695Z,102298.50
2022-08-25T08:46:56.656Z,102309.16
2022-08-25T08:49:57.799Z,102307.34
2022-08-25T08:52:46.796Z,102313.31
2022-08-25T08:55:43.281Z,102299.31
2022-08-25T08:58:26.516Z,102299.31
2022-08-25T09:00:58.501Z,102315.91
2022-08-25T09:03:43.290Z,102307.88
2022-08-25T09:06:22.446Z,102321.13
2022-08-25T09:08:49.685Z,102308.75
2022-08-25T09:11:46.865Z,102311.34
2022-08-25T09:14:54.324Z,102284.22
2022-08-25T09:17:54.416Z,102301.63
2022-08-25T09:20:51.039Z,102250.50
2022-08-25T09:24:06.556Z,102301.34
2022-08-25T09:27:12.269Z,102305.47
2022-08-25T09:30:06.351Z,102294.41
2022-08-25T09:32:48.692Z,102249.03
2022-08-25T09:35:30.344Z,102292.97
2022-08-25T09:38:15.650Z,102288.03
2022-08-25T09:40:49.614Z,102281.50
2022-08-25T09:43:42.334Z,102281.06
2022-08-25T09:46:12.118Z,102277.00
2022-08-25T09:48:42.331Z,102270.16
2022-08-25T09:51:38.183Z,102239.25
2022-08-25T09:54:13.025Z,102261.13
2022-08-25T09:56:52.442Z,102258.25
2022-08-25T09:59:35.954Z,102262.44
2022-08-25T10:02:25.144Z,102249.75
2022-08-25T10:04:53.476Z,102239.38
2022-08-25T10:07:27.609Z,102248.53
2022-08-25T10:10:01.847Z,102219.94
2022-08-25T10:12:45.146Z,102233.41
2022-08-25T10:15:30.265Z,102239.56
2022-08-25T10:18:28.710Z,102226.53
2022-08-25T10:21:17.414Z,102175.16
2022-08-25T10:23:52.733Z,102216.94
2022-08-25T10:27:03.958Z,102208.72
2022-08-25T10:30:03.126Z,102207.44
2022-08-25T10:33:21.233Z,102195.28
2022-08-25T10:36:30.063Z,102191.06
2022-08-25T10:39:02.797Z,102187.56
2022-08-25T10:42:13.182Z,102180.63
2022-08-25T10:45:24.964Z,102170.72
2022-08-25T10:48:03.286Z,102185.22
2022-08-25T10:50:45.526Z,102176.91
2022-08-25T10:54:15.989Z,102163.44
2022-08-25T10:57:19.321Z,102171.28
2022-08-25T11:00:01.688Z,102170.19
2022-08-25T11:02:49.840Z,102166.00
2022-08-25T11:05:40.988Z,102158.28
2022-08-25T11:08:23.063Z,102149.44
2022-08-25T11:11:02.331Z,102152.13
2022-08-25T11:13:41.767Z,102160.31
2022-08-25T11:16:25.489Z,102141.78
2022-08-25T11:19:33.703Z,102158.28
2022-08-25T11:22:24.757Z,102146.56
2022-08-25T11:25:35.011Z,102155.59
2022-08-25T11:28:51.256Z,102152.75
2022-08-25T11:31:22.980Z,102153.16
2022-08-25T11:33:52.306Z,102148.16
2022-08-25T11:36:55.246Z,102104.59
2022-08-25T11:40:10.246Z,102147.38
2022-08-25T11:43:08.205Z,102141.69
2022-08-25T11:46:27.853Z,102145.44
2022-08-25T11:49:16.371Z,102140.34
2022-08-25T11:51:47.740Z,102124.94
2022-08-25T11:54:43.855Z,102131.38
2022-08-25T11:57:26.057Z,102142.41
2022-08-25T11:59:54.881Z,102141.97
2022-08-25T12:02:39.173Z,102137.06
2022-08-25T12:05:22.112Z,102139.94
2022-08-25T12:08:18.306Z,102137.94
2022-08-25T12:11:10.658Z,102131.47
2022-08-25T12:13:50.953Z,102118.81
2022-08-25T12:16:56.470Z,102115.78
2022-08-25T12:19:28.595Z,102124.97
2022-08-25T12:22:19.169Z,102116.63
2022-08-25T12:24:56.957Z,102103.94
2022-08-25T12:28:00.179Z,102101.53
2022-08-25T12:30:57.004Z,102089.66
2022-08-25T12:34:05.206Z,102087.13
2022-08-25T12:36:35.157Z,102097.34
2022-08-25T12:39:24.253Z,102085.72
2022-08-25T12:44:49.516Z,102089.81
2022-08-25T12:47:33.970Z,102093.16
2022-08-25T12:50:40.723Z,102083.56
2022-08-25T12:53:41.064Z,102088.41
2022-08-25T12:56:39.099Z,102089.47
2022-08-25T12:59:21.804Z,102084.38
2022-08-25T13:02:39.824Z,102078.34
2022-08-25T13:05:25.615Z,102086.78
2022-08-25T13:08:23.012Z,102092.16
2022-08-25T13:11:13.473Z,102057.94
2022-08-25T13:14:01.434Z,102059.84
2022-08-25T13:16:30.337Z,102069.53
2022-08-25T13:19:03.917Z,102059.34
2022-08-25T13:21:42.770Z,102058.38
2022-08-25T13:24:26.434Z,102057.41
2022-08-25T13:27:05.438Z,102050.84
2022-08-25T13:29:49.419Z,102057.25
2022-08-25T13:32:35.340Z,102060.19
2022-08-25T13:35:19.736Z,102054.28
2022-08-25T13:37:47.798Z,102057.19
2022-08-25T13:40:29.466Z,102060.38
2022-08-25T13:43:05.787Z,102041.63
2022-08-25T13:45:41.271Z,102037.06
2022-08-25T13:48:22.440Z,102042.44
2022-08-25T13:50:54.114Z,102033.28
2022-08-25T13:53:30.519Z,102049.31
2022-08-25T13:56:03.855Z,102035.97
2022-08-25T13:58:45.296Z,102031.22
2022-08-25T14:01:49.294Z,102032.94
2022-08-25T14:04:50.636Z,102033.47
2022-08-25T14:07:22.371Z,102027.28
2022-08-25T14:09:56.362Z,102028.09
2022-08-25T14:12:48.213Z,102027.75
2022-08-25T14:15:16.751Z,102019.38
2022-08-25T14:18:27.073Z,102011.94
2022-08-25T14:20:57.459Z,102000.00
2022-08-25T14:23:30.691Z,102002.81
2022-08-25T14:25:58.694Z,101999.94
2022-08-25T14:28:29.350Z,102008.44
2022-08-25T14:31:09.834Z,101985.38
2022-08-25T14:33:43.629Z,101994.88
2022-08-25T14:36:18.639Z,102000.25
2022-08-25T14:38:54.935Z,101998.53
2022-08-25T14:41:24.164Z,102001.22
2022-08-25T14:43:51.672Z,101978.59
2022-08-25T14:46:24.841Z,101990.34
2022-08-25T14:48:57.909Z,101983.66
2022-08-25T14:51:27.817Z,101985.78
2022-08-25T14:54:04.128Z,101995.25
2022-08-25T14:56:33.559Z,101984.78
2022-08-25T14:59:01.361Z,101982.69
2022-08-25T15:01:30.025Z,101965.03
2022-08-25T15:04:02.867Z,101977.72
2022-08-25T15:06:30.261Z,101971.56
2022-08-25T15:09:12.775Z,101975.09
2022-08-25T15:11:47.145Z,101966.38
2022-08-25T15:14:29.082Z,101968.53
2022-08-25T15:17:02.341Z,101962.75
2022-08-25T15:19:29.935Z,101951.84
2022-08-25T15:21:58.264Z,101962.69
2022-08-25T15:24:28.716Z,101950.31
2022-08-25T15:27:04.350Z,101962.69
2022-08-25T15:29:34.927Z,101951.47
2022-08-25T15:32:07.050Z,101941.13
2022-08-25T15:34:35.820Z,101945.66
2022-08-25T15:37:13.367Z,101943.47
2022-08-25T15:39:44.530Z,101920.69
2022-08-25T15:42:12.280Z,101938.00
2022-08-25T15:44:40.019Z,101918.84
2022-08-25T15:47:09.105Z,101890.00
2022-08-25T15:49:40.305Z,101949.28
2022-08-25T15:52:07.392Z,101914.59
2022-08-25T15:54:35.202Z,101908.47
2022-08-25T15:57:04.264Z,101921.28
2022-08-25T15:59:40.278Z,101889.03
2022-08-25T16:02:15.090Z,101943.16
2022-08-25T16:04:43.780Z,101906.38
2022-08-25T16:07:13.365Z,101922.84
2022-08-25T16:09:44.655Z,101921.03
2022-08-25T16:12:11.736Z,101927.09
2022-08-25T16:14:40.461Z,101937.06
2022-08-25T16:17:07.739Z,101931.00
2022-08-25T16:19:38.197Z,101934.69
2022-08-25T16:22:08.725Z,101906.78
2022-08-25T16:24:40.028Z,101928.63
2022-08-25T16:27:11.528Z,101914.63
2022-08-25T16:29:42.858Z,101921.63
2022-08-25T16:32:13.411Z,101919.25
2022-08-25T16:34:43.097Z,101884.63
2022-08-25T16:37:11.726Z,101914.63
2022-08-25T16:39:43.977Z,101870.81
2022-08-25T16:42:11.434Z,101907.16
2022-08-25T16:44:39.910Z,101892.88
2022-08-25T16:47:08.808Z,101916.19
2022-08-25T16:49:36.469Z,101914.63
2022-08-25T16:52:25.272Z,101919.31
2022-08-25T16:55:16.041Z,101903.91
2022-08-25T16:57:48.546Z,101923.38
2022-08-25T17:00:28.531Z,101901.78
2022-08-25T17:03:01.653Z,101914.25
2022-08-25T17:05:29.880Z,101918.78
2022-08-25T17:08:20.028Z,101924.53
2022-08-25T17:10:47.513Z,101931.13
2022-08-25T17:13:14.837Z,101925.47
2022-08-25T17:15:45.286Z,101919.94
2022-08-25T17:18:13.733Z,101899.44
2022-08-25T17:20:44.660Z,101921.50
2022-08-25T17:23:13.039Z,101930.50
2022-08-25T17:25:43.160Z,101936.84
2022-08-25T17:28:11.993Z,101937.97
2022-08-25T17:30:46.592Z,101927.69
2022-08-25T17:33:14.445Z,101932.19
2022-08-25T17:35:46.950Z,101927.00
2022-08-25T17:38:15.554Z,101930.84
2022-08-25T17:40:43.426Z,101928.44
2022-08-25T17:43:15.177Z,101931.56
2022-08-25T17:45:42.955Z,101930.22
2022-08-25T17:48:13.201Z,101942.84
2022-08-25T17:50:41.663Z,101935.94
2022-08-25T17:53:10.498Z,101937.06
2022-08-25T17:55:42.344Z,101931.31
2022-08-25T17:58:13.922Z,101942.91
2022-08-25T18:00:43.794Z,101937.19
2022-08-25T18:03:11.730Z,101944.25
2022-08-25T18:05:39.598Z,101941.13
2022-08-25T18:08:10.289Z,101945.63
2022-08-25T18:10:38.912Z,101953.94
2022-08-25T18:13:06.344Z,101942.97
2022-08-25T18:15:33.969Z,101946.97
2022-08-25T18:18:04.513Z,101951.53
2022-08-25T18:20:32.468Z,101959.81
2022-08-25T18:22:59.698Z,101963.34
2022-08-25T18:25:28.686Z,101966.22
2022-08-25T18:27:59.288Z,101966.38
2022-08-25T18:30:28.081Z,101950.91
2022-08-25T18:32:59.543Z,101951.25
2022-08-25T18:35:27.259Z,101967.13
2022-08-25T18:38:12.613Z,101964.84
2022-08-25T18:40:40.486Z,101964.81
2022-08-25T18:43:14.608Z,101962.25
2022-08-25T18:45:51.022Z,101959.06
2022-08-25T18:48:23.788Z,101967.97
2022-08-25T18:50:54.679Z,101970.78
2022-08-25T18:53:30.630Z,101974.53
2022-08-25T18:56:06.006Z,101972.00
2022-08-25T18:58:33.789Z,101959.19
2022-08-25T19:01:04.009Z,101970.59
2022-08-25T19:03:31.951Z,101945.66
2022-08-25T19:06:00.095Z,101964.88
2022-08-25T19:08:29.090Z,101954.41
2022-08-25T19:10:56.297Z,101969.38
2022-08-25T19:13:23.828Z,101962.38
2022-08-25T19:15:52.507Z,101960.84
2022-08-25T19:18:26.232Z,101969.53
2022-08-25T19:20:58.088Z,101954.63
2022-08-25T19:23:26.677Z,101958.97
2022-08-25T19:25:54.856Z,101955.50
2022-08-25T19:28:23.279Z,101935.00
2022-08-25T19:30:51.029Z,101948.75
2022-08-25T19:33:42.674Z,101947.22
2022-08-25T19:36:08.916Z,101958.84
2022-08-25T19:38:37.722Z,101957.19
2022-08-25T19:41:13.842Z,101958.13
2022-08-25T19:43:56.675Z,101954.75
2022-08-25T19:46:36.227Z,101950.78
2022-08-25T19:49:22.414Z,101957.88
2022-08-25T19:51:54.018Z,101957.13
2022-08-25T19:54:38.234Z,101961.59
2022-08-25T19:57:14.097Z,101953.66
2022-08-25T19:59:55.533Z,101960.81
2022-08-25T20:02:29.830Z,101956.41
2022-08-25T20:05:01.701Z,101947.03
2022-08-25T20:07:31.499Z,101950.50
2022-08-25T20:10:00.349Z,101942.78
2022-08-25T20:12:28.335Z,101957.75
2022-08-25T20:14:56.160Z,101959.28
2022-08-25T20:17:28.189Z,101956.69
2022-08-25T20:19:59.513Z,101954.00
2022-08-25T20:22:30.245Z,101959.47
2022-08-25T20:25:07.346Z,101960.34
2022-08-25T20:27:51.698Z,101963.22
2022-08-25T20:30:26.992Z,101968.50
2022-08-25T20:32:57.014Z,101945.94
2022-08-25T20:35:27.257Z,101965.03
2022-08-25T20:37:56.609Z,101943.50
2022-08-25T20:40:26.571Z,101959.06
2022-08-25T20:42:55.764Z,101957.34
2022-08-25T20:45:23.502Z,101965.44
2022-08-25T20:47:51.133Z,101961.03
2022-08-25T20:50:18.826Z,101949.78
2022-08-25T20:52:46.120Z,101962.91
2022-08-25T20:55:18.844Z,101949.78
2022-08-25T20:57:46.703Z,101936.88
2022-08-25T21:00:15.808Z,101960.41
2022-08-25T21:02:46.208Z,101956.00
2022-08-25T21:05:13.923Z,101949.22
2022-08-25T21:07:42.037Z,101965.03
2022-08-25T21:10:14.097Z,101944.97
2022-08-25T21:12:43.154Z,101949.22
2022-08-25T21:15:12.823Z,101951.19
2022-08-25T21:17:39.939Z,101938.19
2022-08-25T21:20:08.805Z,101931.28
2022-08-25T21:22:37.731Z,101944.13
2022-08-25T21:25:06.074Z,101936.16
2022-08-25T21:27:34.017Z,101925.81
2022-08-25T21:30:01.084Z,101929.25
2022-08-25T21:32:28.163Z,101919.72
2022-08-25T21:34:56.348Z,101917.06
2022-08-25T21:37:25.096Z,101922.16
2022-08-25T21:39:53.039Z,101926.81
2022-08-25T21:42:22.546Z,101917.94
2022-08-25T21:44:50.822Z,101917.13
2022-08-25T21:47:20.987Z,101898.09
2022-08-25T21:49:49.805Z,101917.19
2022-08-25T21:52:18.295Z,101919.00
2022-08-25T21:54:45.819Z,101906.91
2022-08-25T21:57:12.866Z,101911.47
2022-08-25T21:59:41.238Z,101916.66
2022-08-25T22:02:13.709Z,101912.25
2022-08-25T22:04:42.052Z,101914.13
2022-08-25T22:07:11.133Z,101908.84
2022-08-25T22:09:39.986Z,101912.25
2022-08-25T22:12:08.380Z,101912.25
2022-08-25T22:14:36.592Z,101910.44
2022-08-25T22:17:05.885Z,101903.63
2022-08-25T22:19:36.239Z,101906.31
2022-08-25T22:22:03.623Z,101888.16
2022-08-25T22:24:30.760Z,101896.66
2022-08-25T22:26:58.449Z,101893.03
2022-08-25T22:29:26.119Z,101890.50
2022-08-25T22:31:57.720Z,101902.34
2022-08-25T22:34:34.504Z,101907.63
2022-08-25T22:37:05.424Z,101890.88
2022-08-25T22:39:34.158Z,101892.75
2022-08-25T22:42:03.298Z,101883.81
2022-08-25T22:44:31.048Z,101883.81
2022-08-25T22:46:58.217Z,101894.50
2022-08-25T22:49:29.107Z,101897.94
2022-08-25T22:51:56.232Z,101897.09
2022-08-25T22:54:23.928Z,101899.69
2022-08-25T22:56:53.607Z,101883.94
2022-08-25T22:59:22.600Z,101885.69
2022-08-25T23:01:52.620Z,101883.00
2022-08-25T23:04:22.269Z,101880.34
2022-08-25T23:06:50.124Z,101887.13
2022-08-25T23:09:17.512Z,101888.84
2022-08-25T23:11:44.722Z,101892.28
2022-08-25T23:14:12.762Z,101873.97
2022-08-25T23:16:42.266Z,101886.94
2022-08-25T23:19:13.572Z,101879.00
2022-08-25T23:22:01.667Z,101879.88
2022-08-25T23:24:31.040Z,101873.13
2022-08-25T23:27:04.084Z,101872.19
2022-08-25T23:29:38.233Z,101859.41
2022-08-25T23:32:07.761Z,101865.19
2022-08-25T23:34:39.430Z,101868.88
2022-08-25T23:37:07.983Z,101860.00
2022-08-25T23:39:35.536Z,101854.06
2022-08-25T23:42:08.384Z,101866.97
2022-08-25T23:44:36.733Z,101859.91
2022-08-25T23:47:06.716Z,101849.50
2022-08-25T23:49:34.089Z,101849.38
2022-08-25T23:52:01.825Z,101852.09
2022-08-25T23:54:30.964Z,101851.81
2022-08-25T23:56:59.365Z,101848.28
2022-08-25T23:59:26.423Z,101846.69
